Time;durP1;ratioP1;P1;durP2;ratioP2;P2;SDS_P1;SDS_P2;PMS_P1;PMS_P2;Temp;Humidity;BMP_temperature;BMP_pressure;BME280_temperature;BME280_humidity;BME280_pressure;Samples;Min_cycle;Max_cycle;Signal;HPM_P1;HPM_P2
2023/02/20 00:01:28;;;;;;;9.00;1.50;;;9.80;99.90;;;;;;5001601;28;20433;-71
2023/02/20 00:03:53;;;;;;;5.57;1.40;;;9.70;99.90;;;;;;4994464;28;20029;-71
2023/02/20 00:06:19;;;;;;;6.80;1.65;;;9.70;99.90;;;;;;5015627;28;20397;-70
2023/02/20 00:08:45;;;;;;;6.47;1.25;;;9.70;99.90;;;;;;5011522;28;20069;-71
2023/02/20 00:11:11;;;;;;;6.38;2.08;;;9.70;99.90;;;;;;5017992;28;20034;-71
2023/02/20 00:13:37;;;;;;;3.38;1.30;;;9.70;99.90;;;;;;4994056;28;20113;-70
2023/02/20 00:16:03;;;;;;;3.78;1.60;;;9.70;99.90;;;;;;5015681;28;20463;-70
2023/02/20 00:18:29;;;;;;;3.00;1.58;;;9.60;99.90;;;;;;4994220;28;20038;-71
2023/02/20 00:20:55;;;;;;;4.85;2.45;;;9.50;99.90;;;;;;5015467;28;20033;-70
2023/02/20 00:23:20;;;;;;;2.63;1.42;;;9.40;99.90;;;;;;5011924;28;20026;-70
2023/02/20 00:25:46;;;;;;;7.82;1.83;;;9.30;99.90;;;;;;4993601;28;20054;-71
2023/02/20 00:28:13;;;;;;;3.53;1.17;;;9.30;99.90;;;;;;5019885;28;20087;-71
2023/02/20 00:30:38;;;;;;;1.58;0.80;;;9.30;99.90;;;;;;5013379;28;20409;-71
2023/02/20 00:33:04;;;;;;;5.55;1.00;;;9.30;99.90;;;;;;5005286;28;20044;-71
2023/02/20 00:35:30;;;;;;;4.82;2.05;;;9.30;99.90;;;;;;5008786;28;20029;-70
2023/02/20 00:37:56;;;;;;;5.57;1.52;;;9.30;99.90;;;;;;5005000;28;20036;-71
2023/02/20 00:40:24;;;;;;;6.75;1.75;;;9.30;99.90;;;;;;5022558;28;20034;-71
2023/02/20 00:42:50;;;;;;;1.92;1.33;;;9.20;99.90;;;;;;5005453;28;20029;-71
2023/02/20 00:45:17;;;;;;;8.27;1.27;;;9.10;99.90;;;;;;5022666;28;20033;-71
2023/02/20 00:47:43;;;;;;;3.58;1.52;;;9.10;99.90;;;;;;4988800;28;20025;-70
2023/02/20 00:50:12;;;;;;;3.58;1.17;;;9.10;99.90;;;;;;5008213;28;20030;-70
2023/02/20 00:52:38;;;;;;;1.98;1.13;;;9.20;99.90;;;;;;5005346;28;20034;-70
2023/02/20 00:55:04;;;;;;;3.25;1.20;;;9.10;99.90;;;;;;5022352;28;20589;-70
2023/02/20 00:57:30;;;;;;;5.00;1.15;;;9.20;99.90;;;;;;5022649;28;20512;-70
2023/02/20 00:59:56;;;;;;;3.42;1.45;;;9.10;99.90;;;;;;5025082;28;20050;-70
2023/02/20 01:02:22;;;;;;;7.57;1.67;;;9.10;99.90;;;;;;5004941;28;20217;-71
2023/02/20 01:04:48;;;;;;;3.63;1.17;;;9.10;99.90;;;;;;5023672;28;20033;-70
2023/02/20 01:07:14;;;;;;;2.47;1.30;;;9.10;99.90;;;;;;5021592;28;20037;-71
2023/02/20 01:09:40;;;;;;;3.92;1.45;;;9.10;99.90;;;;;;5009478;28;20135;-70
2023/02/20 01:12:06;;;;;;;7.90;1.25;;;9.00;99.90;;;;;;5003654;28;20061;-70
2023/02/20 01:14:32;;;;;;;6.35;1.90;;;8.90;99.90;;;;;;5009934;28;20467;-71
2023/02/20 01:16:58;;;;;;;3.42;1.17;;;8.90;99.90;;;;;;5017091;28;20150;-71
2023/02/20 01:19:24;;;;;;;1.55;1.17;;;8.80;99.90;;;;;;5011361;28;20041;-71
2023/02/20 01:21:50;;;;;;;3.03;1.42;;;8.80;99.90;;;;;;5002042;28;20022;-71
2023/02/20 01:24:17;;;;;;;3.08;1.30;;;8.70;99.90;;;;;;4997523;28;20088;-71
2023/02/20 01:26:45;;;;;;;6.32;1.35;;;8.70;99.90;;;;;;5019100;28;20070;-71
2023/02/20 01:29:12;;;;;;;8.18;1.58;;;8.50;99.90;;;;;;4996824;28;20034;-71
2023/02/20 01:31:38;;;;;;;12.77;1.90;;;8.50;99.90;;;;;;5018475;28;20485;-71
2023/02/20 01:34:04;;;;;;;7.22;1.90;;;8.40;99.90;;;;;;4996863;28;20048;-71
2023/02/20 01:36:30;;;;;;;3.72;0.77;;;8.50;99.90;;;;;;5018355;28;20148;-71
2023/02/20 01:38:56;;;;;;;2.38;1.15;;;8.50;99.90;;;;;;5014000;28;20162;-71
2023/02/20 01:41:24;;;;;;;6.15;1.55;;;8.40;99.90;;;;;;5004449;28;20061;-71
2023/02/20 01:43:49;;;;;;;5.35;1.85;;;8.40;99.90;;;;;;4996815;28;20068;-72
2023/02/20 01:46:27;;;;;;;3.85;1.42;;;8.30;99.90;;;;;;5018204;28;20473;-71
2023/02/20 01:49:10;;;;;;;2.35;1.23;;;8.20;99.90;;;;;;5014089;28;20121;-71
2023/02/20 01:51:41;;;;;;;5.70;1.80;;;8.30;99.90;;;;;;5004924;28;20048;-71
2023/02/20 01:54:10;;;;;;;;;;;8.20;99.90;;;;;;5014572;28;20034;-71
2023/02/20 01:56:36;;;;;;;9.07;1.30;;;8.10;99.90;;;;;;5000129;28;19921;-71
2023/02/20 01:59:05;;;;;;;8.20;2.17;;;8.00;99.90;;;;;;5011855;28;20041;-70
2023/02/20 02:01:32;;;;;;;5.07;1.58;;;8.00;99.90;;;;;;5006114;28;20029;-70
2023/02/20 02:04:06;;;;;;;2.60;1.48;;;7.90;99.90;;;;;;4978211;28;20037;-71
2023/02/20 02:06:37;;;;;;;5.25;0.80;;;7.80;99.90;;;;;;5006005;28;20030;-71
2023/02/20 02:09:14;;;;;;;6.57;1.83;;;7.80;99.90;;;;;;5013315;28;20037;-71
2023/02/20 02:11:39;;;;;;;3.78;1.98;;;7.70;99.90;;;;;;4999913;28;20037;-71
2023/02/20 02:14:06;;;;;;;1.95;1.05;;;7.70;99.90;;;;;;5014455;28;20033;-71
2023/02/20 02:16:51;;;;;;;1.90;1.30;;;7.60;99.90;;;;;;5022176;28;20034;-71
2023/02/20 02:19:51;;;;;;;2.60;1.27;;;7.60;99.90;;;;;;4994335;28;20026;-71
2023/02/20 02:22:53;;;;;;;6.97;2.30;;;7.60;99.90;;;;;;5030118;28;20028;-71
2023/02/20 02:25:54;;;;;;;1.67;1.05;;;7.60;99.90;;;;;;5013135;28;20370;-70
2023/02/20 02:29:14;;;;;;;6.07;1.42;;;7.60;99.90;;;;;;5000380;28;20366;-70
2023/02/20 02:32:27;;;;;;;3.85;1.25;;;7.60;99.90;;;;;;5018440;28;20107;-70
2023/02/20 02:35:09;;;;;;;4.22;1.17;;;7.50;99.90;;;;;;4981120;28;20046;-71
2023/02/20 02:38:31;;;;;;;3.97;1.63;;;7.50;99.90;;;;;;5008385;28;20032;-70
2023/02/20 02:41:40;;;;;;;3.67;2.05;;;7.50;99.90;;;;;;4992365;28;20121;-70
2023/02/20 02:44:47;;;;;;;3.13;1.67;;;7.50;99.90;;;;;;4964990;28;20049;-70
2023/02/20 02:47:47;;;;;;;4.80;1.23;;;7.40;99.90;;;;;;5023980;28;20041;-70
2023/02/20 02:50:36;;;;;;;4.40;1.35;;;7.30;99.90;;;;;;5024612;28;20116;-70
2023/02/20 02:53:06;;;;;;;6.90;1.60;;;7.20;99.90;;;;;;5007763;28;20125;-70
2023/02/20 02:55:32;;;;;;;6.45;1.73;;;7.10;99.90;;;;;;5010926;28;20136;-70
2023/02/20 02:57:59;;;;;;;1.63;0.80;;;7.10;99.90;;;;;;5006946;28;20156;-70
2023/02/20 03:00:57;;;;;;;2.03;0.98;;;7.10;99.90;;;;;;5010688;28;20414;-70
2023/02/20 03:03:39;;;;;;;3.13;1.20;;;7.10;99.90;;;;;;4986569;28;20408;-71
2023/02/20 03:06:13;;;;;;;2.08;1.38;;;7.10;99.90;;;;;;5008718;28;20084;-70
2023/02/20 03:08:48;;;;;;;5.07;2.80;;;7.20;99.90;;;;;;4995570;28;20600;-70
2023/02/20 03:11:21;;;;;;;3.28;2.30;;;7.10;99.90;;;;;;5003618;28;20128;-70
2023/02/20 03:16:58;;;;;;;6.65;2.70;;;7.00;99.90;;;;;;5004998;28;20062;-70
2023/02/20 03:19:32;;;;;;;4.30;1.48;;;7.00;99.90;;;;;;4975689;28;20034;-70
2023/02/20 03:22:01;;;;;;;6.80;1.38;;;7.00;99.90;;;;;;5002016;28;20021;-71
2023/02/20 03:24:31;;;;;;;4.50;1.50;;;6.90;99.90;;;;;;5013130;28;20030;-70
2023/02/20 03:26:59;;;;;;;6.57;2.35;;;6.80;99.90;;;;;;5001564;28;20044;-70
2023/02/20 03:29:36;;;;;;;1.95;1.25;;;6.70;99.90;;;;;;4996804;28;20079;-71
2023/02/20 03:43:26;;;;;;;3.85;1.85;;;6.80;99.90;;;;;;5023680;28;20029;-71
2023/02/20 03:46:05;;;;;;;5.82;2.05;;;6.70;99.90;;;;;;5022952;28;20132;-71
2023/02/20 03:48:42;;;;;;;3.55;1.73;;;6.60;99.90;;;;;;5011519;28;20045;-71
2023/02/20 03:53:54;;;;;;;7.57;1.92;;;6.50;99.90;;;;;;5013544;28;20060;-71
2023/02/20 03:56:30;;;;;;;4.85;1.35;;;6.50;99.90;;;;;;5005171;28;20040;-70
2023/02/20 03:59:13;;;;;;;2.40;1.38;;;6.50;99.90;;;;;;4994400;28;20080;-70
2023/02/20 04:01:43;;;;;;;5.32;2.15;;;6.50;99.90;;;;;;5002123;28;20034;-71
2023/02/20 04:04:17;;;;;;;4.32;2.40;;;6.50;99.90;;;;;;4994336;28;20029;-71
2023/02/20 04:06:45;;;;;;;5.53;1.90;;;6.50;99.90;;;;;;5002121;28;20034;-71
2023/02/20 04:09:17;;;;;;;5.95;2.45;;;6.50;99.90;;;;;;4994127;28;20034;-71
2023/02/20 04:11:59;;;;;;;6.70;2.25;;;6.50;99.90;;;;;;5001805;28;20048;-71
2023/02/20 04:14:28;;;;;;;5.05;2.38;;;6.50;99.90;;;;;;4975473;28;20494;-71
2023/02/20 04:17:01;;;;;;;6.35;1.60;;;6.50;99.90;;;;;;4999172;28;20064;-71
2023/02/20 04:19:27;;;;;;;4.35;1.60;;;6.50;99.90;;;;;;5011900;28;20028;-70
2023/02/20 04:21:58;;;;;;;5.63;2.28;;;6.50;99.90;;;;;;5016239;28;20438;-70
2023/02/20 04:24:34;;;;;;;13.87;2.70;;;6.50;99.90;;;;;;5012308;28;20095;-70
2023/02/20 04:27:00;;;;;;;3.60;1.65;;;6.50;99.90;;;;;;5003352;28;20061;-70
2023/02/20 04:29:26;;;;;;;9.65;1.65;;;6.50;99.90;;;;;;5030155;28;20029;-70
2023/02/20 04:31:52;;;;;;;3.97;1.85;;;6.50;99.90;;;;;;5016765;28;20034;-70
2023/02/20 04:34:18;;;;;;;5.80;2.65;;;6.40;99.90;;;;;;5030730;28;20029;-70
2023/02/20 04:36:44;;;;;;;11.93;3.05;;;6.30;99.90;;;;;;5001246;28;20103;-71
2023/02/20 04:39:09;;;;;;;4.10;1.98;;;6.20;99.90;;;;;;5010769;28;20524;-70
2023/02/20 04:41:35;;;;;;;12.98;2.75;;;6.00;99.90;;;;;;5014838;28;20129;-70
2023/02/20 04:46:45;;;;;;;7.55;2.30;;;5.90;99.90;;;;;;5018039;28;20490;-71
2023/02/20 04:49:11;;;;;;;11.18;2.05;;;5.80;99.90;;;;;;5010615;28;20076;-70
2023/02/20 04:51:36;;;;;;;14.00;2.25;;;5.80;99.90;;;;;;5017678;28;20030;-71
2023/02/20 04:54:02;;;;;;;8.57;2.63;;;5.70;99.90;;;;;;5010845;28;20038;-70
2023/02/20 04:56:28;;;;;;;7.63;1.48;;;5.60;99.90;;;;;;5014074;28;20030;-70
2023/02/20 04:58:53;;;;;;;5.65;1.92;;;5.50;99.90;;;;;;5010390;28;20038;-70
2023/02/20 05:01:19;;;;;;;6.32;2.10;;;5.50;99.90;;;;;;5014551;28;20030;-70
2023/02/20 05:03:45;;;;;;;12.60;2.75;;;5.40;99.90;;;;;;5010686;28;20101;-70
2023/02/20 05:06:11;;;;;;;4.05;2.05;;;5.40;99.90;;;;;;4974094;28;20034;-70
2023/02/20 05:08:37;;;;;;;12.05;1.73;;;5.30;99.90;;;;;;5015758;28;20038;-70
2023/02/20 05:11:02;;;;;;;4.30;2.20;;;5.30;99.90;;;;;;5014234;28;20034;-70
2023/02/20 05:13:28;;;;;;;8.73;2.53;;;5.20;99.90;;;;;;5010611;28;20076;-70
2023/02/20 05:15:54;;;;;;;13.30;2.85;;;5.20;99.90;;;;;;5014177;28;20060;-70
2023/02/20 05:18:27;;;;;;;3.83;1.85;;;5.20;99.90;;;;;;5010109;28;20026;-70
2023/02/20 05:23:37;;;;;;;6.80;3.03;;;5.10;99.90;;;;;;4995554;28;20102;-70
2023/02/20 05:26:08;;;;;;;6.07;2.35;;;5.10;99.90;;;;;;5001642;28;20078;-70
2023/02/20 05:28:34;;;;;;;;;;;5.10;99.90;;;;;;5000003;28;20068;-69
2023/02/20 05:31:00;;;;;;;6.53;2.00;;;5.00;99.90;;;;;;5010814;28;20376;-68
2023/02/20 05:33:25;;;;;;;10.68;2.95;;;5.00;99.90;;;;;;5017095;28;20105;-68
2023/02/20 05:35:51;;;;;;;6.78;3.28;;;5.00;99.90;;;;;;5014043;28;20041;-68
2023/02/20 05:38:18;;;;;;;7.72;3.60;;;5.10;99.90;;;;;;5014051;28;20440;-70
2023/02/20 05:40:44;;;;;;;5.30;2.67;;;5.10;99.90;;;;;;5021007;28;20041;-68
2023/02/20 05:43:09;;;;;;;7.10;2.83;;;5.20;99.90;;;;;;5021882;28;20036;-69
2023/02/20 05:45:35;;;;;;;4.90;3.35;;;5.20;99.90;;;;;;5021590;28;20033;-69
2023/02/20 05:48:01;;;;;;;6.63;2.85;;;5.20;99.90;;;;;;5004159;28;20108;-70
2023/02/20 05:50:27;;;;;;;4.53;2.63;;;5.30;99.90;;;;;;5007082;28;20508;-69
2023/02/20 05:52:52;;;;;;;6.05;1.98;;;5.30;99.90;;;;;;5003919;28;20033;-69
2023/02/20 05:55:18;;;;;;;6.38;2.58;;;5.30;99.90;;;;;;5021746;28;20107;-70
2023/02/20 05:57:44;;;;;;;12.10;2.63;;;5.30;99.90;;;;;;4970348;28;20038;-70
2023/02/20 06:00:10;;;;;;;6.35;2.45;;;5.40;99.90;;;;;;5008225;28;20043;-70
2023/02/20 06:02:36;;;;;;;11.05;3.30;;;5.40;99.90;;;;;;5004147;28;20064;-70
2023/02/20 06:05:04;;;;;;;3.75;2.60;;;5.40;99.90;;;;;;5024468;28;20054;-70
2023/02/20 06:07:30;;;;;;;4.80;2.50;;;5.40;99.90;;;;;;5021944;28;20492;-70
2023/02/20 06:09:56;;;;;;;7.75;3.38;;;5.30;99.90;;;;;;5024396;28;20022;-70
2023/02/20 06:12:22;;;;;;;6.65;3.15;;;5.30;99.90;;;;;;5007628;28;20026;-71
2023/02/20 06:14:47;;;;;;;7.90;3.97;;;5.30;99.90;;;;;;5025684;28;20030;-70
2023/02/20 06:17:13;;;;;;;7.30;2.35;;;5.30;99.90;;;;;;5023994;28;20164;-70
2023/02/20 06:19:39;;;;;;;14.70;4.35;;;5.30;99.90;;;;;;5027524;28;20098;-70
2023/02/20 06:22:05;;;;;;;6.20;3.03;;;5.30;99.90;;;;;;5021511;28;20136;-70
2023/02/20 06:24:31;;;;;;;3.90;1.73;;;5.20;99.90;;;;;;5012571;28;20026;-75
2023/02/20 06:26:57;;;;;;;13.30;2.78;;;5.20;99.90;;;;;;5022019;28;20100;-69
2023/02/20 06:29:23;;;;;;;7.22;2.97;;;5.20;99.90;;;;;;5012330;28;20045;-70
2023/02/20 06:31:49;;;;;;;8.88;2.90;;;5.20;99.90;;;;;;5003068;28;20173;-73
2023/02/20 06:34:15;;;;;;;6.32;3.42;;;5.10;99.90;;;;;;5013144;28;20463;-70
2023/02/20 06:36:42;;;;;;;5.25;2.90;;;5.10;99.90;;;;;;5002666;28;20513;-70
2023/02/20 06:39:10;;;;;;;8.25;2.67;;;5.00;99.90;;;;;;5012648;28;20660;-69
2023/02/20 06:41:36;;;;;;;6.05;3.47;;;5.00;99.90;;;;;;5002821;28;20054;-71
2023/02/20 06:44:02;;;;;;;7.68;2.97;;;4.90;99.90;;;;;;4995322;28;20077;-68
2023/02/20 06:46:28;;;;;;;5.63;2.15;;;4.90;99.90;;;;;;5016781;28;20034;-71
2023/02/20 06:48:58;;;;;;;9.23;3.30;;;4.90;99.90;;;;;;5008680;28;20045;-72
2023/02/20 06:51:28;;;;;;;4.70;2.88;;;4.90;99.90;;;;;;5002540;28;20129;-69
2023/02/20 06:53:55;;;;;;;7.00;3.40;;;4.90;99.90;;;;;;4992449;28;20038;-70
2023/02/20 06:56:25;;;;;;;13.13;3.70;;;4.90;99.90;;;;;;5001242;28;20653;-69
2023/02/20 06:58:53;;;;;;;7.38;3.65;;;4.90;99.90;;;;;;5015687;28;20168;-69
2023/02/20 07:01:22;;;;;;;16.70;4.82;;;4.90;99.90;;;;;;4999111;28;20029;-70
2023/02/20 07:03:49;;;;;;;5.32;2.58;;;4.80;99.90;;;;;;5028522;28;20057;-70
2023/02/20 07:06:15;;;;;;;6.00;2.10;;;4.80;99.90;;;;;;5002139;28;20045;-70
2023/02/20 07:08:41;;;;;;;8.27;3.25;;;4.80;99.90;;;;;;5016767;28;20460;-69
2023/02/20 07:11:08;;;;;;;13.55;3.88;;;4.90;99.90;;;;;;5002352;28;20087;-71
2023/02/20 07:13:33;;;;;;;9.75;4.60;;;4.90;99.90;;;;;;4991688;28;20148;-69
2023/02/20 07:15:59;;;;;;;7.18;3.05;;;5.00;99.90;;;;;;5006494;28;20543;-69
2023/02/20 07:18:26;;;;;;;5.18;2.50;;;5.00;99.90;;;;;;5017304;28;20160;-69
2023/02/20 07:20:53;;;;;;;5.85;3.17;;;5.10;99.90;;;;;;5016099;28;20039;-69
2023/02/20 07:23:19;;;;;;;8.27;3.22;;;5.20;99.90;;;;;;4999697;28;20025;-69
2023/02/20 07:25:46;;;;;;;4.65;2.88;;;5.40;99.90;;;;;;5016437;28;20113;-67
2023/02/20 07:28:13;;;;;;;10.55;3.38;;;5.60;99.90;;;;;;5016601;28;20040;-70
2023/02/20 07:30:39;;;;;;;5.68;2.53;;;5.80;99.90;;;;;;5008138;28;20490;-70
2023/02/20 07:33:04;;;;;;;9.98;2.40;;;5.90;99.90;;;;;;5003723;28;20064;-70
2023/02/20 07:35:30;;;;;;;21.70;3.05;;;6.20;99.90;;;;;;5011612;28;20462;-70
2023/02/20 07:37:56;;;;;;;7.90;3.58;;;6.30;99.90;;;;;;5012464;28;20033;-71
2023/02/20 07:40:21;;;;;;;17.23;2.95;;;6.40;99.90;;;;;;5018617;28;20058;-72
2023/02/20 07:42:47;;;;;;;19.08;3.42;;;6.50;99.90;;;;;;5001210;28;20029;-70
2023/02/20 07:45:13;;;;;;;9.93;2.80;;;6.50;99.90;;;;;;5005405;28;20039;-70
2023/02/20 07:47:39;;;;;;;13.18;3.67;;;6.60;99.90;;;;;;5015872;28;20041;-71
2023/02/20 07:50:05;;;;;;;3.92;2.50;;;6.70;99.90;;;;;;5022478;28;20404;-70
2023/02/20 07:52:31;;;;;;;5.22;2.95;;;6.70;99.90;;;;;;5005480;28;20022;-71
2023/02/20 07:54:57;;;;;;;9.32;3.42;;;6.80;99.90;;;;;;5022844;28;20025;-71
2023/02/20 07:57:22;;;;;;;7.78;2.90;;;6.80;99.90;;;;;;5017004;28;20029;-70
2023/02/20 07:59:48;;;;;;;7.70;3.15;;;7.00;99.90;;;;;;5004707;28;20527;-71
2023/02/20 08:02:14;;;;;;;5.80;2.72;;;7.10;99.90;;;;;;5015837;28;20737;-70
2023/02/20 08:04:40;;;;;;;4.25;2.72;;;7.20;99.90;;;;;;5022676;28;20034;-70
2023/02/20 08:07:06;;;;;;;13.13;3.03;;;7.30;99.90;;;;;;5022115;28;20037;-71
2023/02/20 08:09:32;;;;;;;6.70;2.45;;;7.40;99.90;;;;;;5015784;28;20038;-71
2023/02/20 08:11:58;;;;;;;9.40;2.30;;;7.50;99.90;;;;;;5016217;28;20137;-71
2023/02/20 08:14:23;;;;;;;14.32;3.10;;;7.70;99.90;;;;;;4993579;28;20078;-71
2023/02/20 08:16:49;;;;;;;4.85;2.67;;;7.80;99.90;;;;;;5003440;28;20059;-71
2023/02/20 08:19:15;;;;;;;6.03;2.42;;;7.90;99.90;;;;;;5021671;28;20505;-71
2023/02/20 08:21:41;;;;;;;4.95;2.47;;;8.10;99.90;;;;;;5018093;28;20379;-70
2023/02/20 08:24:07;;;;;;;6.93;3.15;;;8.20;99.90;;;;;;5018966;28;20099;-70
2023/02/20 08:26:33;;;;;;;11.13;3.15;;;8.30;99.90;;;;;;5013845;28;20044;-70
2023/02/20 08:29:00;;;;;;;3.58;2.30;;;8.30;99.90;;;;;;5010338;28;20116;-71
2023/02/20 08:31:27;;;;;;;9.45;3.47;;;8.30;99.90;;;;;;4988785;28;20026;-71
2023/02/20 08:33:53;;;;;;;4.88;2.53;;;8.40;99.90;;;;;;5015595;28;20121;-70
2023/02/20 08:36:18;;;;;;;14.52;2.55;;;8.50;99.90;;;;;;5024284;28;20125;-70
2023/02/20 08:38:44;;;;;;;8.07;2.72;;;8.50;99.90;;;;;;5014331;28;20164;-70
2023/02/20 08:41:11;;;;;;;7.72;2.33;;;8.60;99.90;;;;;;4994945;28;20037;-70
2023/02/20 08:43:39;;;;;;;11.60;3.50;;;8.70;99.90;;;;;;5022486;28;20108;-71
2023/02/20 08:46:06;;;;;;;8.88;2.40;;;8.80;99.90;;;;;;5020839;28;20033;-71
2023/02/20 08:48:32;;;;;;;9.60;2.05;;;8.90;99.90;;;;;;5021794;28;20147;-71
2023/02/20 08:50:58;;;;;;;8.65;3.10;;;8.70;99.90;;;;;;5013282;28;20038;-71
2023/02/20 08:53:24;;;;;;;6.07;2.35;;;8.80;99.90;;;;;;5021896;28;20029;-71
2023/02/20 08:55:50;;;;;;;4.55;1.50;;;8.80;99.90;;;;;;5003315;28;20029;-71
2023/02/20 08:58:21;;;;;;;5.43;2.35;;;8.80;99.90;;;;;;5021531;28;20049;-73
2023/02/20 09:00:49;;;;;;;10.23;3.40;;;8.80;99.90;;;;;;5014936;28;20038;-72
2023/02/20 09:03:15;;;;;;;7.82;2.40;;;9.00;99.90;;;;;;5021526;28;20036;-71
2023/02/20 09:05:41;;;;;;;6.15;2.78;;;9.10;99.90;;;;;;5003219;28;20038;-70
2023/02/20 09:08:08;;;;;;;5.05;1.90;;;9.10;99.90;;;;;;4993486;28;20481;-70
2023/02/20 09:10:34;;;;;;;7.63;2.83;;;9.00;99.90;;;;;;5002356;28;20041;-70
2023/02/20 09:13:00;;;;;;;4.60;2.33;;;9.10;99.90;;;;;;4999678;28;20108;-70
2023/02/20 09:15:26;;;;;;;5.72;2.25;;;9.20;99.90;;;;;;5005938;28;20081;-71
2023/02/20 09:17:52;;;;;;;9.10;3.70;;;9.30;99.90;;;;;;5016762;28;20395;-73
2023/02/20 09:20:20;;;;;;;9.13;2.47;;;9.30;99.90;;;;;;5010044;28;20034;-75
2023/02/20 09:22:50;;;;;;;9.32;1.80;;;9.30;99.90;;;;;;4999969;28;20030;-71
2023/02/20 09:25:17;;;;;;;6.63;2.58;;;9.30;99.90;;;;;;5012705;28;20091;-70
2023/02/20 09:27:43;;;;;;;7.10;2.15;;;9.30;99.90;;;;;;4987397;28;20049;-71
2023/02/20 09:30:12;;;;;;;13.55;2.88;;;9.30;99.90;;;;;;5008099;28;20026;-70
2023/02/20 09:32:38;;;;;;;2.88;1.80;;;9.40;99.90;;;;;;5016319;28;20124;-70
2023/02/20 09:35:04;;;;;;;5.07;2.08;;;9.40;99.90;;;;;;5009713;28;20104;-70
2023/02/20 09:37:30;;;;;;;4.68;2.05;;;9.30;99.90;;;;;;5016091;28;20451;-69
2023/02/20 09:39:55;;;;;;;11.68;2.58;;;9.40;99.90;;;;;;5009536;28;20050;-69
2023/02/20 09:42:40;;;;;;;6.10;2.40;;;9.40;99.90;;;;;;5016668;28;20029;-70
2023/02/20 09:45:17;;;;;;;8.63;2.85;;;9.40;99.90;;;;;;5013456;28;20429;-70
2023/02/20 09:47:58;;;;;;;8.27;3.50;;;9.30;99.90;;;;;;5020373;28;20064;-70
2023/02/20 09:51:04;;;;;;;6.60;3.60;;;9.20;99.90;;;;;;4993241;28;20044;-68
2023/02/20 09:54:04;;;;;;;8.73;2.15;;;9.20;99.90;;;;;;4935450;29;20102;-69
2023/02/20 09:56:57;;;;;;;10.50;2.23;;;9.30;99.90;;;;;;5015515;28;20040;-69
2023/02/20 09:59:40;;;;;;;20.75;3.33;;;9.40;99.90;;;;;;5018161;28;20550;-69
2023/02/20 10:02:36;;;;;;;6.20;2.95;;;9.70;99.90;;;;;;5012360;28;20531;-70
2023/02/20 10:05:24;;;;;;;11.65;3.25;;;9.70;99.90;;;;;;5013536;28;20037;-69
2023/02/20 10:07:51;;;;;;;14.10;3.20;;;10.00;99.90;;;;;;5003771;28;20493;-70
2023/02/20 10:10:22;;;;;;;7.97;2.40;;;10.20;99.90;;;;;;4975938;28;20041;-69
2023/02/20 10:13:29;;;;;;;;;;;10.40;99.90;;;;;;5018299;28;20042;-73
2023/02/20 10:16:17;;;;;;;3.88;2.08;;;10.80;99.90;;;;;;4977033;28;19953;-69
2023/02/20 10:19:14;;;;;;;7.93;3.00;;;11.00;99.90;;;;;;5009131;28;20481;-72
2023/02/20 10:22:33;;;;;;;10.93;3.35;;;10.80;99.90;;;;;;5029247;28;20381;-71
2023/02/20 10:25:18;;;;;;;5.68;2.83;;;11.20;99.90;;;;;;4959680;28;20035;-72
2023/02/20 10:28:08;;;;;;;4.85;2.35;;;11.60;99.90;;;;;;4944582;28;20070;-71
2023/02/20 10:31:07;;;;;;;10.23;2.95;;;11.50;99.90;;;;;;4932999;29;20051;-72
2023/02/20 10:33:46;;;;;;;4.40;2.30;;;11.70;99.90;;;;;;4954323;28;20057;-71
2023/02/20 10:36:25;;;;;;;2.88;1.70;;;11.70;99.90;;;;;;4938660;28;20043;-72
2023/02/20 10:39:08;;;;;;;6.60;2.15;;;11.90;99.90;;;;;;4931386;28;20095;-71
2023/02/20 10:41:53;;;;;;;6.30;2.28;;;12.10;99.90;;;;;;4969212;28;20098;-72
2023/02/20 10:44:50;;;;;;;7.15;1.92;;;12.30;99.90;;;;;;4955991;28;20513;-81
2023/02/20 10:47:41;;;;;;;4.18;2.22;;;12.40;99.90;;;;;;4967556;28;20166;-70
2023/02/20 10:50:18;;;;;;;10.45;2.63;;;12.60;99.90;;;;;;4969765;28;20039;-71
2023/02/20 10:53:00;;;;;;;4.10;2.00;;;13.10;99.90;;;;;;4946351;29;20644;-71
2023/02/20 10:55:48;;;;;;;6.65;2.40;;;12.90;99.90;;;;;;4955157;28;20482;-73
2023/02/20 10:58:34;;;;;;;4.88;2.25;;;13.50;99.90;;;;;;5006912;28;20036;-74
2023/02/20 11:01:11;;;;;;;8.23;2.85;;;13.70;99.90;;;;;;5013007;28;20034;-73
2023/02/20 11:03:54;;;;;;;4.90;2.45;;;14.10;99.90;;;;;;5006487;28;20424;-73
2023/02/20 11:06:28;;;;;;;5.07;2.28;;;14.10;99.90;;;;;;4997334;28;20033;-72
2023/02/20 11:08:54;;;;;;;9.05;1.85;;;14.80;99.90;;;;;;5023450;28;20208;-72
2023/02/20 11:11:30;;;;;;;9.55;2.33;;;15.80;99.90;;;;;;5011227;28;20108;-73
2023/02/20 11:13:59;;;;;;;9.95;1.92;;;15.80;99.90;;;;;;5006787;28;20044;-74
2023/02/20 11:16:51;;;;;;;6.68;2.10;;;15.90;99.90;;;;;;5025801;28;20079;-68
2023/02/20 11:19:29;;;;;;;11.27;2.65;;;15.90;99.30;;;;;;5015832;28;20143;-69
2023/02/20 11:21:55;;;;;;;6.82;2.17;;;16.20;99.00;;;;;;5012080;28;20033;-69
2023/02/20 11:24:38;;;;;;;8.65;2.15;;;17.10;96.30;;;;;;4994450;28;20393;-69
2023/02/20 11:27:09;;;;;;;8.60;2.55;;;16.50;95.10;;;;;;5017894;28;20086;-69
2023/02/20 11:30:28;;;;;;;5.78;1.83;;;16.50;95.80;;;;;;5003071;28;20034;-69
2023/02/20 11:33:22;;;;;;;9.88;2.13;;;17.20;96.10;;;;;;4964180;28;20125;-69
2023/02/20 11:35:57;;;;;;;7.38;2.10;;;17.70;94.00;;;;;;5007555;28;20069;-69
2023/02/20 11:38:33;;;;;;;4.90;1.77;;;16.60;95.60;;;;;;4999630;28;20559;-69
2023/02/20 11:41:25;;;;;;;3.58;1.70;;;16.60;96.80;;;;;;5004785;28;20037;-69
2023/02/20 11:44:24;;;;;;;5.50;2.40;;;17.10;95.20;;;;;;5011418;28;20156;-70
2023/02/20 11:47:23;;;;;;;6.78;2.35;;;17.70;94.70;;;;;;4986480;28;20129;-67
2023/02/20 11:50:07;;;;;;;2.83;1.58;;;16.30;97.40;;;;;;4979163;28;20040;-67
2023/02/20 11:52:33;;;;;;;5.53;2.17;;;16.80;97.60;;;;;;4982189;28;20112;-69
2023/02/20 11:55:20;;;;;;;7.80;1.60;;;16.00;97.60;;;;;;5006432;28;20081;-69
2023/02/20 11:57:47;;;;;;;12.20;2.38;;;16.20;98.10;;;;;;4994473;28;20584;-68
2023/02/20 12:00:19;;;;;;;6.55;2.35;;;17.70;96.30;;;;;;4998458;28;20042;-68
2023/02/20 12:03:09;;;;;;;9.65;2.00;;;18.30;94.40;;;;;;4992596;28;20500;-68
2023/02/20 12:05:37;;;;;;;5.78;2.25;;;17.50;95.60;;;;;;4999918;28;20049;-68
2023/02/20 12:08:36;;;;;;;8.77;2.72;;;18.30;94.30;;;;;;5027746;28;20038;-68
2023/02/20 12:11:15;;;;;;;6.05;1.98;;;17.40;94.20;;;;;;5020495;28;20109;-69
2023/02/20 12:13:49;;;;;;;4.43;1.60;;;18.80;94.40;;;;;;5011100;28;20021;-68
2023/02/20 12:16:49;;;;;;;13.38;2.17;;;19.90;91.20;;;;;;5021038;28;20467;-69
2023/02/20 12:19:54;;;;;;;6.60;1.50;;;18.60;93.10;;;;;;5026780;28;20481;-68
2023/02/20 12:22:40;;;;;;;7.50;1.50;;;18.70;90.90;;;;;;5015381;28;20041;-68
2023/02/20 12:25:45;;;;;;;5.00;1.52;;;19.40;90.10;;;;;;5024271;28;20116;-69
2023/02/20 12:28:25;;;;;;;9.60;2.00;;;19.40;88.40;;;;;;4965713;28;20037;-68
2023/02/20 12:31:03;;;;;;;4.53;1.73;;;20.40;83.60;;;;;;5018170;28;20026;-68
2023/02/20 12:34:21;;;;;;;4.00;1.38;;;19.90;85.10;;;;;;5030460;28;20124;-68
2023/02/20 12:36:54;;;;;;;3.00;0.95;;;19.90;80.90;;;;;;5014807;28;20060;-68
2023/02/20 12:39:37;;;;;;;13.05;4.13;;;21.10;76.30;;;;;;5011417;28;20029;-68
2023/02/20 12:42:48;;;;;;;5.22;1.35;;;21.00;75.20;;;;;;5021783;28;20026;-68
2023/02/20 12:45:34;;;;;;;1.85;1.00;;;21.00;74.30;;;;;;4992376;28;20053;-69
2023/02/20 12:48:25;;;;;;;4.95;1.20;;;18.90;80.30;;;;;;4993427;28;20030;-67
2023/02/20 12:51:00;;;;;;;5.97;1.55;;;19.20;78.20;;;;;;5001647;28;20499;-67
2023/02/20 12:54:18;;;;;;;6.07;0.95;;;19.70;77.10;;;;;;4990808;28;20039;-67
2023/02/20 12:57:17;;;;;;;1.60;0.90;;;19.40;74.60;;;;;;5016729;28;20113;-68
2023/02/20 13:00:07;;;;;;;3.58;1.23;;;19.80;74.70;;;;;;5009300;28;20033;-67
2023/02/20 13:03:00;;;;;;;1.88;0.85;;;18.60;76.90;;;;;;5001246;28;20033;-68
2023/02/20 13:05:27;;;;;;;4.57;1.40;;;18.40;72.40;;;;;;5019921;28;20022;-68
2023/02/20 13:08:03;;;;;;;1.77;0.70;;;19.90;72.90;;;;;;5010126;28;20149;-69
2023/02/20 13:10:33;;;;;;;7.75;1.30;;;20.50;70.20;;;;;;5015315;28;20068;-69
2023/02/20 13:12:59;;;;;;;5.30;1.37;;;20.30;69.40;;;;;;4992828;28;20026;-68
2023/02/20 13:15:40;;;;;;;1.33;0.93;;;20.00;69.80;;;;;;4996901;28;20072;-69
2023/02/20 13:18:31;;;;;;;3.28;1.00;;;19.40;70.80;;;;;;4996731;28;20108;-69
2023/02/20 13:21:04;;;;;;;5.10;1.02;;;19.00;70.20;;;;;;5007160;28;20056;-69
2023/02/20 13:23:35;;;;;;;4.63;0.88;;;19.00;69.90;;;;;;5016838;28;20083;-69
2023/02/20 13:26:22;;;;;;;5.25;1.10;;;18.40;70.90;;;;;;5003819;28;20497;-70
2023/02/20 13:28:48;;;;;;;6.57;1.00;;;18.20;71.80;;;;;;4994299;28;20042;-70
2023/02/20 13:31:37;;;;;;;4.70;1.00;;;18.40;69.10;;;;;;4993516;28;20037;-69
2023/02/20 13:34:06;;;;;;;5.97;1.27;;;18.40;70.50;;;;;;5012436;28;20405;-69
2023/02/20 13:36:34;;;;;;;5.20;1.00;;;18.40;70.50;;;;;;5025167;28;20059;-68
2023/02/20 13:39:19;;;;;;;1.92;0.82;;;19.00;71.00;;;;;;5028184;28;20089;-68
2023/02/20 13:42:01;;;;;;;2.83;1.15;;;19.10;70.70;;;;;;5025470;28;20037;-70
2023/02/20 13:44:26;;;;;;;7.65;0.95;;;19.00;70.30;;;;;;5007065;28;20030;-68
2023/02/20 13:47:13;;;;;;;2.15;0.90;;;19.80;69.20;;;;;;5021972;28;20052;-69
2023/02/20 13:49:48;;;;;;;7.00;1.15;;;19.60;69.60;;;;;;5027772;28;20516;-70